Terminal Aerodrome Forecast
Issued by NWS Green Bay, WI

Home | Current Version | Previous Version | Graphics & Text | Print | Product List | Glossary On
Versions: 1 2 3 4 5 6 7 8 9 10 11 12 13 14 15 16
000
FTUS43 KGRB 221720
TAFGRB
TAF
KGRB 221720Z 2218/2318 24009G16KT P6SM VCSH SCT030 BKN060
      TEMPO 2218/2222 2SM TSRA BKN030CB
     FM222200 29008KT 5SM SHRA BKN040
      TEMPO 2222/2224 2SM TSRA BKN018CB
     FM230000 02009G14KT 5SM TSRA BKN025CB
     FM230300 34006KT P6SM SCT035 BKN100
     FM230800 29006KT P6SM BKN100
     FM231600 26012G21KT P6SM SCT045=

USA.gov is the U.S. government's official web portal to all federal, state and local government web resources and services.